Flight Track Log - Related Links

Times and Time Zones

All times are in EDT time to prevent confusion due to time zone crossing. See the N7711Y flight status page for this flight to view local times or setup timezone preferences in your user account.

Time Position Orientation Groundspeed Altitude Reporting Facility
EDT Latitude Longitude Course Direction KTS MPH feet Rate Location/Type
Sun 02:06:54 PM 38.1667 -78.4333 North 115 132 1,800  Level Potomac TRACON
Sun 02:07:54 PM 38.2000 -78.4167 21° North 131 151 2,600 950 Climbing Potomac TRACON
Sun 02:08:54 PM 38.2333 -78.4333 339° North 143 165 3,700 1,030 Climbing Potomac TRACON
Sun 02:09:33 PM 38.2708 -78.4453 346° North 146 168 4,300 1,080 Climbing Washington Center
Sun 02:10:34 PM 38.3036 -78.4653 334° Northwest 146 168 5,500 1,073 Climbing Washington Center
Sun 02:11:36 PM 38.3406 -78.4850 337° Northwest 157 181 6,500 1,008 Climbing Washington Center
Sun 02:12:00 PM 38.4109 -78.4500 North  Level FlightAware Approximate
Sun 02:12:33 PM 38.3800 -78.5025 341° North 151 174 7,500  Level Washington Center
Sun 02:13:34 PM 38.4192 -78.5200 341° North 151 174 8,700 787 Climbing Washington Center
Sun 02:14:35 PM 38.4625 -78.5322 348° North 151 174 9,100 203 Climbing Washington Center
Sun 02:15:32 PM 38.5164 -78.5450 349° North 166 191 9,100  Level Washington Center
Sun 02:16:33 PM 38.5658 -78.5683 340° North 180 207 9,100  Level Washington Center
Sun 02:17:34 PM 38.6133 -78.5889 341° North 185 213 9,100  Level Washington Center
Sun 02:18:35 PM 38.6631 -78.6067 344° North 185 213 9,100  Level Washington Center
Sun 02:19:33 PM 38.7103 -78.6272 341° North 185 213 9,100  Level Washington Center
Sun 02:20:34 PM 38.7600 -78.6453 344° North 185 213 9,100  Level Washington Center
Sun 02:21:35 PM 38.8094 -78.6686 340° North 185 213 9,100  Level Washington Center
Sun 02:22:33 PM 38.8597 -78.6628 North 185 213 9,100  Level Washington Center
Sun 02:23:33 PM 38.9122 -78.6464 14° North 178 205 9,100  Level Washington Center
Sun 02:24:34 PM 38.9606 -78.6322 13° North 183 211 9,100  Level Washington Center
Sun 02:25:34 PM 39.0108 -78.6158 14° North 183 211 9,100  Level Washington Center
Sun 02:26:34 PM 39.0614 -78.5992 14° North 183 211 9,100  Level Washington Center
Sun 02:27:33 PM 39.1097 -78.5850 13° North 183 211 9,100  Level Washington Center
Sun 02:28:33 PM 39.1581 -78.5708 13° North 183 211 9,100  Level Washington Center
Sun 02:29:34 PM 39.2064 -78.5542 15° North 178 205 9,100  Level Washington Center
Sun 02:30:35 PM 39.2547 -78.5400 13° North 178 205 9,100  Level Washington Center
Sun 02:31:33 PM 39.3031 -78.5231 15° North 178 205 9,100  Level Washington Center
Sun 02:32:34 PM 39.3514 -78.5064 15° North 178 205 9,100  Level Washington Center
Sun 02:33:34 PM 39.4017 -78.4922 12° North 178 205 9,100  Level Washington Center
Sun 02:34:33 PM 39.4500 -78.4753 15° North 183 211 9,100  Level Washington Center
Sun 02:35:33 PM 39.5025 -78.4586 14° North 183 211 9,100  Level Washington Center
Sun 02:36:34 PM 39.5350 -78.4114 48° Northeast 171 197 9,100  Level Washington Center
Sun 02:37:34 PM 39.5611 -78.3533 60° Northeast 171 197 9,100  Level Washington Center
Sun 02:38:35 PM 39.5897 -78.2953 57° Northeast 177 204 9,100  Level Washington Center
Sun 02:39:36 PM 39.6158 -78.2369 60° Northeast 182 209 9,100  Level Washington Center
Sun 02:40:33 PM 39.6442 -78.1786 58° Northeast 182 209 9,100  Level Washington Center
Sun 02:41:54 PM 39.6767 -78.1083 59° Northeast 180 207 9,100  Level New York Center
Sun 02:42:55 PM 39.7072 -78.0522 55° Northeast 180 207 9,100  Level New York Center
Sun 02:43:55 PM 39.7619 -78.0553 358° North 149 171 9,100  Level Cleveland Center
Sun 02:44:55 PM 39.8081 -78.0672 349° North 162 186 9,100  Level Cleveland Center
Sun 02:45:55 PM 39.8561 -78.0789 349° North 168 193 9,100  Level Cleveland Center
Sun 02:46:55 PM 39.9022 -78.0906 349° North 168 193 9,100  Level Cleveland Center
Sun 02:47:55 PM 39.9506 -78.1025 349° North 168 193 9,100  Level Cleveland Center
Sun 02:48:55 PM 39.9967 -78.1142 349° North 168 193 9,100  Level Cleveland Center
Sun 02:49:55 PM 40.0428 -78.1289 346° North 168 193 9,100  Level Cleveland Center
Sun 02:50:55 PM 40.0911 -78.1406 350° North 168 193 9,100  Level Cleveland Center
Sun 02:51:55 PM 40.1331 -78.1528 347° North 168 193 9,100  Level Cleveland Center
Sun 02:52:55 PM 40.1811 -78.1644 349° North 168 193 9,100  Level Cleveland Center
Sun 02:53:55 PM 40.2272 -78.1764 349° North 168 193 9,100  Level Cleveland Center
Sun 02:54:55 PM 40.2756 -78.1883 349° North 168 193 9,100  Level Cleveland Center
Sun 02:57:19 PM 40.3875 -78.2164 349° North 164 189 9,100  Level New York Center
Sun 02:58:20 PM 40.4344 -78.2294 348° North 164 189 9,100  Level New York Center
Sun 02:59:31 PM 40.4892 -78.2433 349° North 176 203 9,100  Level Cleveland Center
Sun 03:00:31 PM 40.5353 -78.2556 349° North 176 203 9,100  Level Cleveland Center
Sun 03:01:31 PM 40.5836 -78.2675 349° North 171 197 9,100  Level Cleveland Center
Sun 03:02:31 PM 40.6297 -78.2794 349° North 171 197 9,100  Level Cleveland Center
Sun 03:03:31 PM 40.6778 -78.2914 349° North 171 197 9,100  Level Cleveland Center
Sun 03:04:31 PM 40.7242 -78.3064 346° North 166 191 9,100  Level Cleveland Center
Sun 03:05:31 PM 40.7703 -78.3183 349° North 166 191 9,100  Level Cleveland Center
Sun 03:06:31 PM 40.8183 -78.3306 349° North 166 191 9,100  Level Cleveland Center
Sun 03:07:31 PM 40.8686 -78.3425 350° North 166 191 9,100  Level Cleveland Center
Sun 03:08:31 PM 40.9169 -78.3575 347° North 173 199 9,100  Level Cleveland Center
Sun 03:09:31 PM 40.9631 -78.3697 349° North 173 199 9,100  Level Cleveland Center
Sun 03:10:31 PM 41.0092 -78.3792 351° North 173 199 9,100  Level Cleveland Center
Sun 03:11:31 PM 41.0572 -78.3939 347° North 173 199 9,100  Level Cleveland Center
Sun 03:12:31 PM 41.1075 -78.4061 350° North 168 193 9,100  Level Cleveland Center
Sun 03:13:31 PM 41.1536 -78.4183 349° North 168 193 9,100  Level Cleveland Center
Sun 03:14:31 PM 41.2019 -78.4333 347° North 168 193 9,100  Level Cleveland Center
Sun 03:15:31 PM 41.2481 -78.4428 351° North 168 193 9,100  Level Cleveland Center
Sun 03:16:31 PM 41.2961 -78.4550 349° North 168 193 9,100  Level Cleveland Center
Sun 03:17:31 PM 41.3444 -78.4700 347° North 168 193 9,100  Level Cleveland Center
Sun 03:18:31 PM 41.3903 -78.4797 351° North 168 193 9,100  Level Cleveland Center
Sun 03:19:31 PM 41.4364 -78.4919 349° North 168 193 9,100  Level Cleveland Center
Sun 03:20:31 PM 41.4825 -78.5044 349° North 168 193 9,100  Level Cleveland Center
Sun 03:21:31 PM 41.5308 -78.5167 349° North 163 188 9,100  Level Cleveland Center
Sun 03:22:31 PM 41.5769 -78.5319 346° North 168 193 9,100  Level Cleveland Center
Sun 03:23:31 PM 41.6228 -78.5414 351° North 168 193 9,100  Level Cleveland Center
Sun 03:24:31 PM 41.6689 -78.5539 349° North 168 193 9,100  Level Cleveland Center
Sun 03:25:31 PM 41.7150 -78.5664 349° North 168 193 9,100  Level Cleveland Center
Sun 03:26:31 PM 41.7611 -78.5789 349° North 168 193 9,100  Level Cleveland Center
Sun 03:27:31 PM 41.8072 -78.5914 349° North 168 193 9,100  Level Cleveland Center
Sun 03:28:31 PM 41.8553 -78.6011 351° North 163 188 9,100  Level Cleveland Center
Sun 03:29:31 PM 41.8972 -78.6136 347° North 163 188 9,100  Level Cleveland Center
Sun 03:30:31 PM 41.9475 -78.6261 350° North 163 188 9,100  Level Cleveland Center
Sun 03:31:31 PM 41.9917 -78.6417 345° North 163 188 9,100  Level Cleveland Center
Sun 03:32:31 PM 42.0333 -78.6542 347° North 163 188 9,100  Level Cleveland Center
Sun 03:33:31 PM 42.0794 -78.6639 351° North 163 188 9,100  Level Cleveland Center
Sun 03:34:31 PM 42.1214 -78.6739 350° North 163 188 9,100  Level Cleveland Center
Sun 03:35:31 PM 42.1653 -78.6839 350° North 163 188 9,100  Level Cleveland Center
Sun 03:36:31 PM 42.2133 -78.6992 347° North 163 188 9,100  Level Cleveland Center
Sun 03:37:31 PM 42.2575 -78.7119 348° North 163 188 9,100  Level Cleveland Center
Sun 03:38:31 PM 42.3036 -78.7247 348° North 163 188 9,100  Level Cleveland Center
Sun 03:39:31 PM 42.3475 -78.7347 350° North 163 188 9,100  Level Cleveland Center
Sun 03:40:31 PM 42.3936 -78.7472 349° North 163 188 9,100  Level Cleveland Center
Sun 03:41:31 PM 42.4353 -78.7603 347° North 163 188 9,100  Level Cleveland Center
Sun 03:42:31 PM 42.4794 -78.7758 345° North 163 188 9,100 -300 Level Cleveland Center
Sun 03:43:31 PM 42.5214 -78.7858 350° North 163 188 8,500 -650 Descending Cleveland Center
Sun 03:44:31 PM 42.5653 -78.7986 348° North 163 188 7,800 -731 Descending Cleveland Center
Sun 03:46:48 PM 42.6667 -78.8167 353° North 160 184 6,100 -548 Descending Buffalo TRACON
Sun 03:47:48 PM 42.7167 -78.8333 346° North 159 183 6,000 -50 Descending Buffalo TRACON
Sun 03:48:48 PM 42.7500 -78.8500 340° North 147 169 6,000  Level Buffalo TRACON
Sun 03:49:48 PM 42.7833 -78.8500 360° North 141 162 6,000  Level Buffalo TRACON
Sun 03:50:48 PM 42.8333 -78.8667 346° North 138 159 6,000 -50 Level Buffalo TRACON
Sun 03:51:48 PM 42.8667 -78.8833 340° North 137 158 5,900 -421 Descending Buffalo TRACON
Sun 03:52:42 PM 42.9000 -78.8833 360° North 150 173 5,200 -789 Descending Buffalo TRACON
Sun 03:53:42 PM 42.9333 -78.9000 340° North 158 182 4,400 -905 Descending Buffalo TRACON
Sun 03:54:48 PM 42.9833 -78.9167 346° North 162 186 3,300 -810 Descending Buffalo TRACON
Sun 03:55:48 PM 43.0333 -78.9333 346° North 163 188 2,700 -632 Descending Buffalo TRACON
Sun 03:56:42 PM 43.0667 -78.9167 20° North 149 171 2,100 -526 Descending Buffalo TRACON
Sun 03:57:42 PM 43.1000 -78.9000 20° North 123 142 1,700 -300 Descending Buffalo TRACON
Sun 03:58:42 PM 43.1333 -78.9000 360° North 114 131 1,500 -200 Descending Buffalo TRACON
Sun 04:00:00 PM 43.1000 -78.9333 216° Southwest  Level FlightAware Approximate

Login

Don't have an account? Register now (free) for customized features, flight alerts, and more!